Terminal Aerodrome Forecast
Issued by NWS

Home | Current Version | Previous Version | Text Only | Print | Product List | Glossary Off
Versions: 1 2 3 4 5 6 7 8 9 10 11 12 13

000
FTUS45 KGGW 261123
TAFGDV
TAF
KGDV 261123Z 2612/2712 28010KT P6SM -TSRA OVC080CB
     FM261300 04011KT P6SM BKN100
     FM261800 07010KT P6SM VCTS BKN080CB
     FM270600 07006KT P6SM VCSH BKN100=

USA.gov is the U.S. government's official web portal to all federal, state and local government web resources and services.